Time;durP1;ratioP1;P1;durP2;ratioP2;P2;SDS_P1;SDS_P2;PMS_P1;PMS_P2;Temp;Humidity;BMP_temperature;BMP_pressure;BME280_temperature;BME280_humidity;BME280_pressure;Samples;Min_cycle;Max_cycle;Signal;HPM_P1;HPM_P2
2023/12/14 00:01:35;;;;;;;;;;;6.10;99.90;;;;;;5064109;28;20246;-70
2023/12/14 00:04:02;;;;;;;;;;;6.00;99.90;;;;;;5063354;28;20233;-71
2023/12/14 00:06:29;;;;;;;;;;;6.00;99.90;;;;;;5054547;28;19952;-70
2023/12/14 00:08:55;;;;;;;;;;;6.00;99.90;;;;;;5063748;28;19927;-70
2023/12/14 00:11:22;;;;;;;;;;;6.00;99.90;;;;;;5055615;28;19963;-70
2023/12/14 00:13:49;;;;;;;;;;;6.00;99.90;;;;;;5063189;28;19980;-70
2023/12/14 00:16:17;;;;;;;;;;;6.00;99.90;;;;;;5063578;28;20261;-71
2023/12/14 00:18:44;;;;;;;;;;;6.00;99.90;;;;;;5063355;28;20229;-71
2023/12/14 00:21:10;;;;;;;;;;;6.00;99.90;;;;;;5063520;28;20210;-71
2023/12/14 00:23:37;;;;;;;;;;;6.00;99.90;;;;;;5063125;28;19991;-70
2023/12/14 00:26:04;;;;;;;;;;;5.90;99.90;;;;;;5063729;28;19920;-70
2023/12/14 00:28:30;;;;;;;;;;;5.90;99.90;;;;;;5060360;28;19921;-70
2023/12/14 00:30:57;;;;;;;;;;;5.90;99.90;;;;;;5060031;28;19980;-71
2023/12/14 00:33:25;;;;;;;;;;;5.90;99.90;;;;;;5062631;28;19983;-70
2023/12/14 00:35:51;;;;;;;;;;;5.90;99.90;;;;;;5062691;28;19984;-71
2023/12/14 00:38:18;;;;;;;;;;;5.90;99.90;;;;;;5063158;28;19952;-71
2023/12/14 00:40:45;;;;;;;;;;;6.00;99.90;;;;;;5063266;28;20232;-70
2023/12/14 00:43:11;;;;;;;;;;;6.00;99.90;;;;;;5061893;28;19953;-70
2023/12/14 00:45:38;;;;;;;;;;;6.00;99.90;;;;;;5063458;28;19980;-70
2023/12/14 00:48:05;;;;;;;;;;;6.00;99.90;;;;;;5062809;28;19959;-71
2023/12/14 00:50:33;;;;;;;;;;;6.00;99.90;;;;;;5063091;28;20269;-70
2023/12/14 00:52:59;;;;;;;;;;;6.00;99.90;;;;;;5062755;28;19984;-71
2023/12/14 00:55:26;;;;;;;;;;;5.90;99.90;;;;;;5063120;28;19983;-70
2023/12/14 00:57:53;;;;;;;;;;;5.90;99.90;;;;;;5063013;28;19921;-70
2023/12/14 01:00:19;;;;;;;;;;;6.00;99.90;;;;;;5063226;28;19943;-70
2023/12/14 01:02:46;;;;;;;;;;;6.00;99.90;;;;;;5062615;28;20168;-71
2023/12/14 01:05:12;;;;;;;;;;;5.90;99.90;;;;;;5060630;28;19980;-71
2023/12/14 01:07:40;;;;;;;;;;;5.90;99.90;;;;;;5048764;28;20101;-70
2023/12/14 01:10:08;;;;;;;;;;;6.00;99.90;;;;;;5062981;28;19988;-70
2023/12/14 01:12:34;;;;;;;;;;;6.00;99.90;;;;;;5062695;28;19983;-69
2023/12/14 01:15:01;;;;;;;;;;;6.00;99.90;;;;;;5062899;28;20281;-70
2023/12/14 01:17:28;;;;;;;;;;;6.00;99.90;;;;;;5062929;28;19988;-70
2023/12/14 01:19:55;;;;;;;;;;;6.00;99.90;;;;;;5063005;28;20113;-70
2023/12/14 01:22:21;;;;;;;;;;;6.00;99.90;;;;;;5062528;28;19980;-70
2023/12/14 01:24:49;;;;;;;;;;;6.00;99.90;;;;;;5063331;28;20113;-70
2023/12/14 01:27:16;;;;;;;;;;;6.00;99.90;;;;;;5062823;28;20289;-70
2023/12/14 01:29:43;;;;;;;;;;;6.00;99.90;;;;;;5063023;28;19921;-70
2023/12/14 01:32:09;;;;;;;;;;;6.00;99.90;;;;;;5062482;28;19983;-70
2023/12/14 01:34:36;;;;;;;;;;;6.00;99.90;;;;;;5062053;28;19956;-70
2023/12/14 01:37:02;;;;;;;;;;;5.90;99.90;;;;;;5062474;28;19920;-70
2023/12/14 01:39:29;;;;;;;;;;;6.00;99.90;;;;;;5062875;28;19952;-69
2023/12/14 01:41:57;;;;;;;;;;;6.00;99.90;;;;;;5062487;28;19927;-71
2023/12/14 01:44:24;;;;;;;;;;;6.00;99.90;;;;;;5062655;28;19956;-70
2023/12/14 01:46:51;;;;;;;;;;;6.00;99.90;;;;;;5062511;28;19928;-70
2023/12/14 01:49:17;;;;;;;;;;;6.00;99.90;;;;;;5062681;28;19960;-71
2023/12/14 01:51:44;;;;;;;;;;;6.00;99.90;;;;;;5062990;28;20117;-71
2023/12/14 01:54:10;;;;;;;;;;;6.00;99.90;;;;;;5063663;28;19988;-71
2023/12/14 01:56:37;;;;;;;;;;;6.00;99.90;;;;;;5066514;28;20193;-70
2023/12/14 01:59:05;;;;;;;;;;;6.00;99.90;;;;;;5066219;28;19987;-71
2023/12/14 02:01:35;;;;;;;;;;;6.00;99.90;;;;;;5066367;28;19956;-70
2023/12/14 02:04:02;;;;;;;;;;;6.00;99.90;;;;;;5065821;28;19960;-70
2023/12/14 02:06:29;;;;;;;;;;;6.00;99.90;;;;;;5064605;28;19984;-70
2023/12/14 02:08:55;;;;;;;;;;;6.00;99.90;;;;;;5066149;28;20114;-71
2023/12/14 02:11:22;;;;;;;;;;;6.00;99.90;;;;;;5054526;28;19980;-70
2023/12/14 02:13:49;;;;;;;;;;;6.00;99.90;;;;;;5060869;28;20120;-70
2023/12/14 02:16:16;;;;;;;;;;;6.00;99.90;;;;;;5065531;28;19984;-70
2023/12/14 02:18:43;;;;;;;;;;;6.00;99.90;;;;;;5066010;28;19956;-70
2023/12/14 02:21:10;;;;;;;;;;;6.00;99.90;;;;;;5065717;28;19928;-70
2023/12/14 02:23:43;;;;;;;;;;;6.10;99.90;;;;;;5064332;28;19921;-70
2023/12/14 02:26:09;;;;;;;;;;;6.00;99.90;;;;;;5047401;28;19963;-70
2023/12/14 02:28:36;;;;;;;;;;;6.00;99.90;;;;;;5051088;28;19944;-70
2023/12/14 02:31:02;;;;;;;;;;;6.00;99.90;;;;;;5057227;28;19929;-70
2023/12/14 02:33:29;;;;;;;;;;;6.00;99.90;;;;;;5065194;28;20195;-70
2023/12/14 02:35:56;;;;;;;;;;;6.00;99.90;;;;;;5064995;28;19927;-70
2023/12/14 02:38:22;;;;;;;;;;;6.00;99.90;;;;;;5057114;28;20125;-69
2023/12/14 02:40:52;;;;;;;;;;;6.00;99.90;;;;;;5065596;28;19983;-70
2023/12/14 02:43:19;;;;;;;;;;;6.00;99.90;;;;;;5065057;28;19920;-70
2023/12/14 02:45:45;;;;;;;;;;;6.00;99.90;;;;;;5065186;28;19959;-71
2023/12/14 02:48:12;;;;;;;;;;;6.00;99.90;;;;;;5065261;28;20170;-71
2023/12/14 02:50:39;;;;;;;;;;;6.00;99.90;;;;;;5065613;28;19987;-70
2023/12/14 02:53:05;;;;;;;;;;;6.00;99.90;;;;;;5065260;28;19921;-70
2023/12/14 02:55:32;;;;;;;;;;;6.00;99.90;;;;;;5065641;28;19983;-70
2023/12/14 02:58:00;;;;;;;;;;;6.10;99.90;;;;;;5064866;28;20269;-70
2023/12/14 03:00:26;;;;;;;;;;;6.00;99.90;;;;;;5065302;28;19988;-70
2023/12/14 03:02:53;;;;;;;;;;;6.00;99.90;;;;;;5064642;28;19963;-71
2023/12/14 03:05:20;;;;;;;;;;;6.00;99.90;;;;;;5064007;28;19964;-71
2023/12/14 03:07:46;;;;;;;;;;;6.00;99.90;;;;;;5064828;28;19992;-70
2023/12/14 03:10:13;;;;;;;;;;;6.10;99.90;;;;;;5065127;28;19921;-70
2023/12/14 03:12:40;;;;;;;;;;;6.10;99.90;;;;;;5064586;28;19952;-70
2023/12/14 03:15:08;;;;;;;;;;;6.10;99.90;;;;;;5064706;28;20229;-70
2023/12/14 03:17:34;;;;;;;;;;;6.10;99.90;;;;;;5064736;28;19931;-71
2023/12/14 03:20:03;;;;;;;;;;;6.10;99.90;;;;;;5064546;28;20280;-71
2023/12/14 03:22:29;;;;;;;;;;;6.10;99.90;;;;;;5063969;28;19928;-71
2023/12/14 03:24:56;;;;;;;;;;;6.10;99.90;;;;;;5063245;28;19992;-70
2023/12/14 03:27:24;;;;;;;;;;;6.10;99.90;;;;;;5064881;28;20113;-70
2023/12/14 03:29:51;;;;;;;;;;;6.10;99.90;;;;;;5064649;28;19921;-71
2023/12/14 03:32:19;;;;;;;;;;;6.10;99.90;;;;;;5064212;28;20121;-70
2023/12/14 03:34:45;;;;;;;;;;;6.10;99.90;;;;;;5064291;28;20214;-70
2023/12/14 03:37:12;;;;;;;;;;;6.10;99.90;;;;;;5063588;28;19960;-70
2023/12/14 03:39:39;;;;;;;;;;;6.10;99.90;;;;;;5064162;28;20251;-70
2023/12/14 03:42:05;;;;;;;;;;;6.10;99.90;;;;;;5063892;28;19988;-69
2023/12/14 03:44:32;;;;;;;;;;;6.10;99.90;;;;;;5064415;28;19921;-70
2023/12/14 03:47:00;;;;;;;;;;;6.10;99.90;;;;;;5064320;28;20210;-70
2023/12/14 03:49:28;;;;;;;;;;;6.10;99.90;;;;;;5063984;28;19984;-70
2023/12/14 03:51:54;;;;;;;;;;;6.00;99.90;;;;;;5064105;28;19984;-70
2023/12/14 03:54:21;;;;;;;;;;;6.10;99.90;;;;;;5055632;28;19921;-71
2023/12/14 03:56:47;;;;;;;;;;;6.10;99.90;;;;;;5064263;28;19921;-70
2023/12/14 03:59:14;;;;;;;;;;;6.10;99.90;;;;;;5063791;28;19925;-70
2023/12/14 04:01:41;;;;;;;;;;;6.10;99.90;;;;;;5064137;28;19955;-70
2023/12/14 04:04:07;;;;;;;;;;;6.10;99.90;;;;;;5063416;28;20117;-70
2023/12/14 04:06:35;;;;;;;;;;;6.10;99.90;;;;;;5063807;28;19927;-71
2023/12/14 04:09:02;;;;;;;;;;;6.10;99.90;;;;;;5046766;28;19963;-70
2023/12/14 04:11:28;;;;;;;;;;;6.00;99.90;;;;;;5060930;28;19921;-71
2023/12/14 04:13:56;;;;;;;;;;;6.00;99.90;;;;;;5053956;28;19927;-70
2023/12/14 04:16:22;;;;;;;;;;;6.00;99.90;;;;;;5060845;28;19956;-71
2023/12/14 04:18:49;;;;;;;;;;;6.00;99.90;;;;;;5053008;28;20192;-71
2023/12/14 04:21:16;;;;;;;;;;;6.00;99.90;;;;;;5053067;28;19921;-71
2023/12/14 04:23:45;;;;;;;;;;;6.00;99.90;;;;;;5050076;28;19931;-70
2023/12/14 04:26:13;;;;;;;;;;;5.90;99.90;;;;;;5050964;28;19944;-70
2023/12/14 04:28:40;;;;;;;;;;;5.90;99.90;;;;;;5052909;28;19925;-71
2023/12/14 04:31:06;;;;;;;;;;;5.90;99.90;;;;;;5053207;28;19960;-70
2023/12/14 04:33:33;;;;;;;;;;;5.90;99.90;;;;;;5051949;28;19921;-71
2023/12/14 04:36:00;;;;;;;;;;;5.90;99.90;;;;;;5051527;28;19927;-71
2023/12/14 04:38:26;;;;;;;;;;;5.80;99.90;;;;;;5049368;28;19999;-71
2023/12/14 04:40:54;;;;;;;;;;;5.80;99.90;;;;;;5053036;28;19921;-70
2023/12/14 04:43:21;;;;;;;;;;;5.80;99.90;;;;;;5052481;28;20281;-70
2023/12/14 04:45:47;;;;;;;;;;;5.70;99.90;;;;;;5052434;28;19927;-70
2023/12/14 04:48:14;;;;;;;;;;;5.80;99.90;;;;;;5050866;28;20214;-70
2023/12/14 04:50:40;;;;;;;;;;;5.70;99.90;;;;;;5051411;28;19928;-71
2023/12/14 04:53:08;;;;;;;;;;;5.70;99.90;;;;;;5053099;28;20289;-71
2023/12/14 04:55:34;;;;;;;;;;;5.70;99.90;;;;;;5051751;28;19928;-71
2023/12/14 04:58:02;;;;;;;;;;;5.80;99.90;;;;;;5051894;28;19975;-70
2023/12/14 05:00:29;;;;;;;;;;;5.80;99.90;;;;;;5053710;28;19956;-71
2023/12/14 05:02:55;;;;;;;;;;;5.80;99.90;;;;;;5050225;28;20397;-71
2023/12/14 05:05:22;;;;;;;;;;;5.70;99.90;;;;;;5050279;28;19921;-70
2023/12/14 05:07:49;;;;;;;;;;;5.70;99.90;;;;;;5058061;28;19920;-71
2023/12/14 05:10:16;;;;;;;;;;;5.70;99.90;;;;;;5051390;28;19927;-70
2023/12/14 05:12:42;;;;;;;;;;;5.70;99.90;;;;;;5046982;28;19923;-71
2023/12/14 05:15:11;;;;;;;;;;;5.70;99.90;;;;;;5060433;28;19988;-71
2023/12/14 05:17:37;;;;;;;;;;;5.70;99.90;;;;;;5063112;28;19952;-70
2023/12/14 05:20:05;;;;;;;;;;;5.70;99.90;;;;;;5062359;28;20213;-70
2023/12/14 05:22:31;;;;;;;;;;;5.70;99.90;;;;;;5062315;28;19928;-71
2023/12/14 05:24:58;;;;;;;;;;;5.80;99.90;;;;;;5054480;28;20302;-70
2023/12/14 05:27:25;;;;;;;;;;;5.80;99.90;;;;;;5054735;28;19984;-70
2023/12/14 05:29:52;;;;;;;;;;;5.80;99.90;;;;;;5053817;28;19928;-70
2023/12/14 05:32:20;;;;;;;;;;;5.80;99.90;;;;;;5052535;28;19996;-71
2023/12/14 05:34:47;;;;;;;;;;;5.80;99.90;;;;;;5054159;28;19988;-70
2023/12/14 05:37:14;;;;;;;;;;;5.80;99.90;;;;;;5055421;28;19961;-70
2023/12/14 05:39:42;;;;;;;;;;;5.80;99.90;;;;;;5055601;28;20131;-70
2023/12/14 05:42:08;;;;;;;;;;;5.80;99.90;;;;;;5052512;28;19952;-70
2023/12/14 05:44:35;;;;;;;;;;;5.80;99.90;;;;;;5053918;28;19943;-71
2023/12/14 05:47:01;;;;;;;;;;;5.80;99.90;;;;;;5055004;28;19927;-73
2023/12/14 05:49:29;;;;;;;;;;;5.70;99.90;;;;;;5052770;28;19928;-70
2023/12/14 05:51:57;;;;;;;;;;;5.70;99.90;;;;;;5053078;28;19952;-69
2023/12/14 05:54:23;;;;;;;;;;;5.70;99.90;;;;;;5062107;28;19959;-70
2023/12/14 05:56:50;;;;;;;;;;;5.70;99.90;;;;;;5066304;28;20170;-69
2023/12/14 05:59:17;;;;;;;;;;;5.70;99.90;;;;;;5065559;28;19987;-69
2023/12/14 06:01:44;;;;;;;;;;;5.70;99.90;;;;;;5057430;28;19972;-70
2023/12/14 06:04:10;;;;;;;;;;;5.70;99.90;;;;;;5064745;28;20240;-69
2023/12/14 06:06:40;;;;;;;;;;;5.70;99.90;;;;;;5065010;28;19921;-70
2023/12/14 06:09:07;;;;;;;;;;;5.70;99.90;;;;;;5059603;28;20206;-69
2023/12/14 06:11:33;;;;;;;;;;;5.70;99.90;;;;;;5054622;28;19921;-69
2023/12/14 06:14:00;;;;;;;;;;;5.70;99.90;;;;;;5062975;28;19980;-70
2023/12/14 06:16:27;;;;;;;;;;;5.70;99.90;;;;;;5058509;28;19920;-70
2023/12/14 06:18:53;;;;;;;;;;;5.70;99.90;;;;;;5061446;28;19927;-69
2023/12/14 06:21:20;;;;;;;;;;;5.60;99.90;;;;;;5065239;28;19927;-69
2023/12/14 06:23:48;;;;;;;;;;;5.70;99.90;;;;;;5065315;28;19928;-70
2023/12/14 06:26:15;;;;;;;;;;;5.70;99.90;;;;;;5062848;28;19963;-70
2023/12/14 06:28:41;;;;;;;;;;;5.70;99.90;;;;;;5063375;28;20180;-69
2023/12/14 06:31:12;;;;;;;;;;;5.70;99.90;;;;;;5058173;28;19928;-70
2023/12/14 06:33:39;;;;;;;;;;;5.60;99.90;;;;;;5062892;28;19921;-70
2023/12/14 06:36:06;;;;;;;;;;;5.60;99.90;;;;;;5064344;28;19983;-75
2023/12/14 06:38:33;;;;;;;;;;;5.50;99.90;;;;;;5064906;28;19920;-70
2023/12/14 06:41:01;;;;;;;;;;;5.50;99.90;;;;;;5064169;28;19988;-71
2023/12/14 06:43:28;;;;;;;;;;;5.40;99.90;;;;;;5064968;28;20202;-70
2023/12/14 06:45:55;;;;;;;;;;;5.40;99.90;;;;;;5065660;28;19996;-71
2023/12/14 06:48:22;;;;;;;;;;;5.40;99.90;;;;;;5065534;28;19960;-71
2023/12/14 06:50:48;;;;;;;;;;;5.40;99.90;;;;;;5065563;28;19920;-70
2023/12/14 06:53:15;;;;;;;;;;;5.30;99.90;;;;;;5064621;28;20206;-71
2023/12/14 06:55:42;;;;;;;;;;;5.30;99.90;;;;;;5065203;28;19986;-71
2023/12/14 06:58:11;;;;;;;;;;;5.20;99.90;;;;;;5064925;28;20209;-71
2023/12/14 07:00:38;;;;;;;;;;;5.20;99.90;;;;;;5065546;28;19920;-70
2023/12/14 07:03:04;;;;;;;;;;;5.20;99.90;;;;;;5056838;28;19963;-71
2023/12/14 07:05:32;;;;;;;;;;;5.20;99.90;;;;;;5065133;28;19991;-70
2023/12/14 07:07:59;;;;;;;;;;;5.20;99.90;;;;;;5064929;28;19963;-71
2023/12/14 07:10:25;;;;;;;;;;;5.20;99.90;;;;;;5064880;28;19921;-71
2023/12/14 07:12:52;;;;;;;;;;;5.20;99.90;;;;;;5064535;28;19956;-70
2023/12/14 07:15:20;;;;;;;;;;;5.20;99.90;;;;;;5064869;28;19920;-70
2023/12/14 07:17:47;;;;;;;;;;;5.20;99.90;;;;;;5064580;28;19920;-71
2023/12/14 07:20:13;;;;;;;;;;;5.20;99.90;;;;;;5064767;28;19921;-71
2023/12/14 07:22:40;;;;;;;;;;;5.20;99.90;;;;;;5064616;28;19984;-71
2023/12/14 07:25:07;;;;;;;;;;;5.20;99.90;;;;;;5056433;28;20210;-71
2023/12/14 07:27:34;;;;;;;;;;;5.30;99.90;;;;;;5064731;28;20206;-71
2023/12/14 07:30:00;;;;;;;;;;;5.30;99.90;;;;;;5064770;28;19920;-71
2023/12/14 07:32:28;;;;;;;;;;;5.30;99.90;;;;;;5064165;28;19960;-71
2023/12/14 07:34:55;;;;;;;;;;;5.30;99.90;;;;;;5058764;28;19959;-71
2023/12/14 07:37:21;;;;;;;;;;;5.30;99.90;;;;;;5062518;28;19956;-70
2023/12/14 07:39:48;;;;;;;;;;;5.30;99.90;;;;;;5059422;28;19928;-70
2023/12/14 07:42:19;;;;;;;;;;;5.30;99.90;;;;;;5057446;28;19974;-70
2023/12/14 07:44:45;;;;;;;;;;;5.40;99.90;;;;;;5064332;28;19921;-72
2023/12/14 07:47:12;;;;;;;;;;;5.40;99.90;;;;;;5063719;28;19988;-70
2023/12/14 07:49:40;;;;;;;;;;;5.40;99.90;;;;;;5063926;28;19988;-70
2023/12/14 07:52:07;;;;;;;;;;;5.40;99.90;;;;;;5063248;28;20274;-70
2023/12/14 07:54:34;;;;;;;;;;;5.40;99.90;;;;;;5057627;28;19928;-70
2023/12/14 07:57:00;;;;;;;;;;;5.40;99.90;;;;;;5063431;28;20268;-70
2023/12/14 07:59:27;;;;;;;;;;;5.40;99.90;;;;;;5063862;28;19925;-70
2023/12/14 08:01:53;;;;;;;;;;;5.30;99.90;;;;;;5063475;28;20266;-71
2023/12/14 08:04:20;;;;;;;;;;;5.30;99.90;;;;;;5059737;28;19983;-70
2023/12/14 08:06:48;;;;;;;;;;;5.30;99.90;;;;;;5063764;28;20120;-70
2023/12/14 08:09:15;;;;;;;;;;;5.20;99.90;;;;;;5063744;28;19952;-70
2023/12/14 08:11:41;;;;;;;;;;;5.20;99.90;;;;;;5063923;28;19927;-71
2023/12/14 08:14:08;;;;;;;;;;;5.20;99.90;;;;;;5063050;28;19984;-70
2023/12/14 08:16:34;;;;;;;;;;;5.20;99.90;;;;;;5063811;28;19956;-71
2023/12/14 08:19:01;;;;;;;;;;;5.10;99.90;;;;;;5063640;28;20270;-70
2023/12/14 08:21:28;;;;;;;;;;;5.10;99.90;;;;;;5063895;28;19989;-71
2023/12/14 08:23:56;;;;;;;;;;;5.20;99.90;;;;;;5063393;28;19927;-71
2023/12/14 08:26:22;;;;;;;;;;;5.20;99.90;;;;;;5063724;28;20001;-71
2023/12/14 08:28:49;;;;;;;;;;;5.20;99.90;;;;;;5063423;28;19992;-71
2023/12/14 08:31:15;;;;;;;;;;;5.20;99.90;;;;;;5063354;28;19956;-70
2023/12/14 08:33:42;;;;;;;;;;;5.20;99.90;;;;;;5063134;28;20014;-70
2023/12/14 08:36:09;;;;;;;;;;;5.20;99.90;;;;;;5063732;28;19983;-71
2023/12/14 08:38:36;;;;;;;;;;;5.20;99.90;;;;;;5063463;28;19984;-71
2023/12/14 08:41:04;;;;;;;;;;;5.30;99.90;;;;;;5055266;28;19988;-70
2023/12/14 08:43:30;;;;;;;;;;;5.30;99.90;;;;;;5063065;28;19984;-70
2023/12/14 08:45:57;;;;;;;;;;;5.40;99.90;;;;;;5063310;28;20222;-70
2023/12/14 08:48:23;;;;;;;;;;;5.30;99.90;;;;;;5054332;28;19952;-71
2023/12/14 08:50:50;;;;;;;;;;;5.40;99.90;;;;;;5063243;28;20281;-71
2023/12/14 08:53:17;;;;;;;;;;;5.40;99.90;;;;;;5062593;28;19956;-70
2023/12/14 08:55:44;;;;;;;;;;;5.40;99.90;;;;;;5063526;28;19967;-70
2023/12/14 08:58:12;;;;;;;;;;;5.50;99.90;;;;;;5063287;28;19984;-70
2023/12/14 09:00:39;;;;;;;;;;;5.50;99.90;;;;;;5063429;28;20142;-70
2023/12/14 09:03:05;;;;;;;;;;;5.60;99.90;;;;;;5062509;28;19959;-71
2023/12/14 09:05:32;;;;;;;;;;;5.60;99.90;;;;;;5067153;28;19995;-70
2023/12/14 09:07:59;;;;;;;;;;;5.60;99.90;;;;;;5067460;28;19944;-70
2023/12/14 09:10:26;;;;;;;;;;;5.60;99.90;;;;;;5067577;28;19963;-70
2023/12/14 09:12:52;;;;;;;;;;;5.70;99.90;;;;;;5066860;28;19921;-70
2023/12/14 09:15:20;;;;;;;;;;;5.70;99.90;;;;;;5067510;28;19921;-71
2023/12/14 09:17:47;;;;;;;;;;;5.80;99.90;;;;;;5065598;28;20092;-70
2023/12/14 09:20:14;;;;;;;;;;;5.80;99.90;;;;;;5066999;28;19983;-70
2023/12/14 09:22:41;;;;;;;;;;;5.80;99.90;;;;;;5066604;28;19956;-71
2023/12/14 09:25:09;;;;;;;;;;;5.90;99.90;;;;;;5065640;28;19967;-71
2023/12/14 09:27:35;;;;;;;;;;;6.00;99.90;;;;;;5060657;28;19980;-71
2023/12/14 09:30:02;;;;;;;;;;;6.00;99.90;;;;;;5066806;28;19928;-71
2023/12/14 09:32:30;;;;;;;;;;;6.00;99.90;;;;;;5066615;28;19983;-71
2023/12/14 09:34:57;;;;;;;;;;;6.00;99.90;;;;;;5066976;28;19963;-70
2023/12/14 09:37:23;;;;;;;;;;;6.10;99.90;;;;;;5058610;28;19921;-70
2023/12/14 09:39:50;;;;;;;;;;;6.10;99.90;;;;;;5066695;28;19927;-70
2023/12/14 09:42:19;;;;;;;;;;;6.20;99.90;;;;;;5066175;28;19956;-70
2023/12/14 09:44:46;;;;;;;;;;;6.30;99.90;;;;;;5066796;28;19928;-71
2023/12/14 09:47:12;;;;;;;;;;;6.30;99.90;;;;;;5065827;28;19980;-70
2023/12/14 09:49:42;;;;;;;;;;;6.40;99.90;;;;;;5066120;28;19984;-71
2023/12/14 09:52:09;;;;;;;;;;;6.40;99.90;;;;;;5066105;28;19921;-70
2023/12/14 09:54:36;;;;;;;;;;;6.50;99.90;;;;;;5066293;28;19988;-71
2023/12/14 09:57:02;;;;;;;;;;;6.60;99.90;;;;;;5066488;28;19951;-70
2023/12/14 09:59:29;;;;;;;;;;;6.70;99.90;;;;;;5066531;28;19920;-70
2023/12/14 10:02:09;;;;;;;;;;;6.70;99.90;;;;;;5065808;28;19983;-71
2023/12/14 10:04:36;;;;;;;;;;;6.80;99.90;;;;;;5066466;28;19999;-70
2023/12/14 10:07:06;;;;;;;;;;;6.80;99.90;;;;;;5065840;28;19920;-71
2023/12/14 10:09:33;;;;;;;;;;;6.90;99.90;;;;;;5059440;28;19967;-70
2023/12/14 10:12:03;;;;;;;;;;;6.90;99.90;;;;;;5065452;28;19921;-71
2023/12/14 10:14:30;;;;;;;;;;;6.90;99.90;;;;;;5065872;28;19928;-70
2023/12/14 10:16:56;;;;;;;;;;;7.00;99.90;;;;;;5066303;28;19974;-70
2023/12/14 10:19:23;;;;;;;;;;;7.00;99.90;;;;;;5065940;28;19971;-70
2023/12/14 10:21:51;;;;;;;;;;;7.00;99.90;;;;;;5066274;28;19966;-70
2023/12/14 10:24:19;;;;;;;;;;;7.10;99.90;;;;;;5065723;28;21038;-70
2023/12/14 10:26:46;;;;;;;;;;;7.20;99.90;;;;;;5065962;28;19921;-70
2023/12/14 10:29:13;;;;;;;;;;;7.20;99.90;;;;;;5065548;28;19984;-71
2023/12/14 10:31:40;;;;;;;;;;;7.30;99.90;;;;;;5065649;28;20248;-70
2023/12/14 10:34:06;;;;;;;;;;;7.30;99.90;;;;;;5065397;28;19927;-70
2023/12/14 10:36:33;;;;;;;;;;;7.40;99.90;;;;;;5065639;28;19988;-70
2023/12/14 10:39:01;;;;;;;;;;;7.40;99.90;;;;;;5064914;28;19956;-71
2023/12/14 10:41:31;;;;;;;;;;;7.30;99.90;;;;;;5065833;28;19960;-70
2023/12/14 10:44:00;;;;;;;;;;;7.40;99.90;;;;;;5056909;28;19920;-71
2023/12/14 10:46:26;;;;;;;;;;;7.40;99.90;;;;;;5065963;28;19964;-70
2023/12/14 10:48:54;;;;;;;;;;;7.40;99.90;;;;;;5064171;28;19932;-71
2023/12/14 10:51:21;;;;;;;;;;;7.40;99.90;;;;;;5065635;28;19927;-70
2023/12/14 10:53:49;;;;;;;;;;;7.40;99.90;;;;;;5065455;28;19968;-71
2023/12/14 10:56:16;;;;;;;;;;;7.40;99.90;;;;;;5054096;28;20214;-70
2023/12/14 10:58:49;;;;;;;;;;;7.40;99.90;;;;;;5059681;28;19921;-70
2023/12/14 11:01:16;;;;;;;;;;;7.40;99.90;;;;;;5065528;28;19971;-70
2023/12/14 11:03:43;;;;;;;;;;;7.50;99.90;;;;;;5064569;28;19927;-71
2023/12/14 11:06:28;;;;;;;;;;;7.60;99.90;;;;;;5065194;28;19921;-70
2023/12/14 11:08:56;;;;;;;;;;;7.60;99.90;;;;;;5065052;28;19980;-71
2023/12/14 11:11:23;;;;;;;;;;;7.60;99.90;;;;;;5057035;28;19963;-70
2023/12/14 11:13:53;;;;;;;;;;;7.60;99.90;;;;;;5064421;28;19963;-70
2023/12/14 11:16:21;;;;;;;;;;;7.60;99.90;;;;;;5064966;28;20202;-70
2023/12/14 11:18:47;;;;;;;;;;;7.70;99.90;;;;;;5064998;28;19925;-71
2023/12/14 11:21:19;;;;;;;;;;;7.60;99.90;;;;;;5057349;28;19988;-71
2023/12/14 11:23:45;;;;;;;;;;;7.60;99.90;;;;;;5064671;28;19924;-71
2023/12/14 11:26:21;;;;;;;;;;;7.60;99.90;;;;;;5064322;28;19987;-70
2023/12/14 11:28:49;;;;;;;;;;;7.50;99.90;;;;;;5064908;28;19921;-70
2023/12/14 11:31:17;;;;;;;;;;;7.50;99.90;;;;;;5064870;28;20133;-71
2023/12/14 11:33:44;;;;;;;;;;;7.50;99.90;;;;;;5058951;28;19983;-71
2023/12/14 11:36:11;;;;;;;;;;;7.40;99.90;;;;;;5064635;28;19921;-71
2023/12/14 11:38:38;;;;;;;;;;;7.40;99.90;;;;;;5058149;28;20169;-71
2023/12/14 11:41:05;;;;;;;;;;;7.50;99.90;;;;;;5062225;28;19921;-71
2023/12/14 11:43:39;;;;;;;;;;;7.40;99.90;;;;;;5064049;28;19979;-70
2023/12/14 11:46:06;;;;;;;;;;;7.40;99.90;;;;;;5064595;28;20179;-71
2023/12/14 11:48:34;;;;;;;;;;;7.40;99.90;;;;;;5063283;28;19975;-70
2023/12/14 11:51:00;;;;;;;;;;;7.40;99.90;;;;;;5064393;28;19928;-71
2023/12/14 11:53:27;;;;;;;;;;;7.40;99.90;;;;;;5064069;28;19920;-71
2023/12/14 11:55:54;;;;;;;;;;;7.50;99.90;;;;;;5064287;28;19921;-71
2023/12/14 11:58:20;;;;;;;;;;;7.50;99.90;;;;;;5064004;28;19996;-71
2023/12/14 12:00:47;;;;;;;;;;;7.50;99.90;;;;;;5064397;28;19989;-71
2023/12/14 12:03:14;;;;;;;;;;;7.50;99.90;;;;;;5063854;28;19952;-70
2023/12/14 12:05:43;;;;;;;;;;;7.50;99.90;;;;;;5062957;28;20214;-71
2023/12/14 12:08:10;;;;;;;;;;;7.40;99.90;;;;;;5063964;28;20159;-71
2023/12/14 12:10:37;;;;;;;;;;;7.50;99.90;;;;;;5063882;28;19983;-70
2023/12/14 12:13:05;;;;;;;;;;;7.50;99.90;;;;;;5055071;28;19975;-71
2023/12/14 12:15:32;;;;;;;;;;;7.40;99.90;;;;;;5064137;28;19928;-71
2023/12/14 12:17:59;;;;;;;;;;;7.40;99.90;;;;;;5063620;28;19963;-70
2023/12/14 12:20:26;;;;;;;;;;;7.40;99.90;;;;;;5063671;28;19927;-71
2023/12/14 12:22:55;;;;;;;;;;;7.40;99.90;;;;;;5063600;28;20107;-71
2023/12/14 12:25:22;;;;;;;;;;;7.40;99.90;;;;;;5063694;28;19927;-71
2023/12/14 12:27:49;;;;;;;;;;;7.40;99.90;;;;;;5063695;28;19928;-71
2023/12/14 12:30:16;;;;;;;;;;;7.30;99.90;;;;;;5063580;28;19988;-71
2023/12/14 12:32:43;;;;;;;;;;;7.30;99.90;;;;;;5063002;28;19999;-71
2023/12/14 12:35:10;;;;;;;;;;;7.30;99.90;;;;;;5063716;28;19920;-71
2023/12/14 12:37:36;;;;;;;;;;;7.20;99.90;;;;;;5062411;28;19928;-71
2023/12/14 12:40:05;;;;;;;;;;;7.20;99.90;;;;;;5063323;28;20113;-71
2023/12/14 12:42:32;;;;;;;;;;;7.20;99.90;;;;;;5063032;28;20174;-71
2023/12/14 12:44:58;;;;;;;;;;;7.20;99.90;;;;;;5063566;28;19921;-71
2023/12/14 12:47:25;;;;;;;;;;;7.20;99.90;;;;;;5062187;28;19928;-72
2023/12/14 12:49:52;;;;;;;;;;;7.30;99.90;;;;;;5061610;28;19927;-71
2023/12/14 12:52:18;;;;;;;;;;;7.20;99.90;;;;;;5058395;28;20250;-71
2023/12/14 12:54:45;;;;;;;;;;;7.30;99.90;;;;;;5063013;28;19984;-71
2023/12/14 12:57:13;;;;;;;;;;;7.20;99.90;;;;;;5062943;28;19943;-70
2023/12/14 12:59:39;;;;;;;;;;;7.20;99.90;;;;;;5063171;28;19952;-71
2023/12/14 13:02:06;;;;;;;;;;;7.20;99.90;;;;;;5062667;28;19931;-70
2023/12/14 13:04:33;;;;;;;;;;;7.20;99.90;;;;;;5062376;28;19979;-71
2023/12/14 13:07:01;;;;;;;;;;;7.20;99.90;;;;;;5061237;28;19927;-71
2023/12/14 13:09:28;;;;;;;;;;;7.10;99.90;;;;;;5062795;28;19921;-71
2023/12/14 13:11:55;;;;;;;;;;;7.10;99.90;;;;;;5063134;28;19988;-71
2023/12/14 13:14:23;;;;;;;;;;;7.10;99.90;;;;;;5062970;28;19921;-71
2023/12/14 13:16:50;;;;;;;;;;;7.10;99.90;;;;;;5063330;28;19959;-71
2023/12/14 13:19:16;;;;;;;;;;;7.10;99.90;;;;;;5063110;28;19959;-71
2023/12/14 13:21:43;;;;;;;;;;;7.10;99.90;;;;;;5062888;28;19921;-70
2023/12/14 13:24:09;;;;;;;;;;;7.10;99.90;;;;;;5061855;28;19988;-72
2023/12/14 13:26:36;;;;;;;;;;;7.10;99.90;;;;;;5057210;28;20003;-71
2023/12/14 13:29:03;;;;;;;;;;;7.10;99.90;;;;;;5060189;28;19985;-71
2023/12/14 13:31:31;;;;;;;;;;;7.10;99.90;;;;;;5063083;28;20146;-71
2023/12/14 13:33:57;;;;;;;;;;;7.00;99.90;;;;;;5062447;28;19963;-72
2023/12/14 13:36:24;;;;;;;;;;;7.00;99.90;;;;;;5056335;28;20118;-71
2023/12/14 13:38:51;;;;;;;;;;;7.00;99.90;;;;;;5062687;28;19920;-71
2023/12/14 13:41:17;;;;;;;;;;;6.90;99.90;;;;;;5062963;28;20019;-70
2023/12/14 13:43:46;;;;;;;;;;;6.90;99.90;;;;;;5062259;28;19921;-70
2023/12/14 13:46:12;;;;;;;;;;;6.90;99.90;;;;;;5062858;28;19920;-71
2023/12/14 13:48:41;;;;;;;;;;;6.90;99.90;;;;;;5061796;28;19928;-71
2023/12/14 13:51:08;;;;;;;;;;;6.90;99.90;;;;;;5065510;28;20261;-71
2023/12/14 13:53:35;;;;;;;;;;;6.90;99.90;;;;;;5065238;28;19952;-71
2023/12/14 13:56:02;;;;;;;;;;;6.90;99.90;;;;;;5066608;28;19928;-70
2023/12/14 13:58:29;;;;;;;;;;;6.90;99.90;;;;;;5065742;28;19967;-71
2023/12/14 14:00:56;;;;;;;;;;;6.80;99.90;;;;;;5064381;28;19921;-71
2023/12/14 14:03:22;;;;;;;;;;;6.90;99.90;;;;;;5065180;28;19920;-71
2023/12/14 14:05:50;;;;;;;;;;;6.90;99.90;;;;;;5065328;28;20186;-71
2023/12/14 14:08:17;;;;;;;;;;;6.90;99.90;;;;;;5065038;28;19980;-71
2023/12/14 14:10:43;;;;;;;;;;;6.90;99.90;;;;;;5066386;28;19920;-71
2023/12/14 14:13:10;;;;;;;;;;;6.90;99.90;;;;;;5065337;28;19921;-72
2023/12/14 14:15:37;;;;;;;;;;;6.90;99.90;;;;;;5066286;28;19988;-71
2023/12/14 14:18:04;;;;;;;;;;;6.90;99.90;;;;;;5065990;28;19956;-71
2023/12/14 14:20:30;;;;;;;;;;;6.80;99.90;;;;;;5063142;28;20022;-72
2023/12/14 14:22:59;;;;;;;;;;;6.80;99.90;;;;;;5062224;28;19927;-70
2023/12/14 14:25:25;;;;;;;;;;;6.80;99.90;;;;;;5064352;28;19984;-71
2023/12/14 14:27:52;;;;;;;;;;;6.80;99.90;;;;;;5065588;28;20157;-71
2023/12/14 14:30:19;;;;;;;;;;;6.80;99.90;;;;;;5064913;28;19976;-71